createdAt,value
2019-03-25T00:04:15.151Z,99312.94
2019-03-25T00:09:25.937Z,99304.02
2019-03-25T00:14:33.880Z,99302.63
2019-03-25T00:19:43.238Z,99299.87
2019-03-25T00:24:52.689Z,99300.05
2019-03-25T00:30:00.750Z,99293.63
2019-03-25T00:35:09.913Z,99279.33
2019-03-25T00:40:17.728Z,99284.45
2019-03-25T00:45:32.435Z,99275.40
2019-03-25T00:50:40.909Z,99266.27
2019-03-25T00:55:50.663Z,99260.72
2019-03-25T01:01:01.158Z,99258.92
2019-03-25T01:06:09.277Z,99249.47
2019-03-25T01:11:17.441Z,99246.21
2019-03-25T01:16:25.053Z,99245.75
2019-03-25T01:21:34.695Z,99243.49
2019-03-25T01:26:44.328Z,99231.75
2019-03-25T01:31:51.951Z,99221.98
2019-03-25T01:37:03.003Z,99221.80
2019-03-25T01:42:11.658Z,99216.56
2019-03-25T01:47:19.352Z,99204.17
2019-03-25T01:52:28.063Z,99206.88
2019-03-25T01:57:39.052Z,99208.86
2019-03-25T02:02:47.103Z,99203.74
2019-03-25T02:07:55.303Z,99189.91
2019-03-25T02:13:07.402Z,99176.47
2019-03-25T02:18:15.091Z,99170.00
2019-03-25T02:23:23.358Z,99160.69
2019-03-25T02:28:31.118Z,99155.91
2019-03-25T02:33:38.672Z,99148.84
2019-03-25T02:38:50.160Z,99129.97
2019-03-25T02:43:58.163Z,99126.06
2019-03-25T02:49:06.280Z,99122.97
2019-03-25T02:54:14.263Z,99114.48
2019-03-25T02:59:24.671Z,99105.45
2019-03-25T03:04:32.888Z,99106.50
2019-03-25T03:09:40.865Z,99087.77
2019-03-25T03:14:49.015Z,99079.03
2019-03-25T03:19:56.659Z,99084.68
2019-03-25T03:25:05.128Z,99071.27
2019-03-25T03:30:13.154Z,99068.97
2019-03-25T03:35:21.084Z,99066.72
2019-03-25T03:40:29.703Z,99051.92
2019-03-25T03:45:39.728Z,99051.23
2019-03-25T03:50:47.676Z,99033.91
2019-03-25T03:56:11.516Z,99039.73
2019-03-25T04:01:05.736Z,99036.80
2019-03-25T04:06:13.390Z,99026.97
2019-03-25T04:11:23.473Z,99024.27
2019-03-25T04:16:32.975Z,99009.06
2019-03-25T04:21:43.069Z,99002.09
2019-03-25T04:26:51.081Z,98993.30
2019-03-25T04:31:58.923Z,98995.70
2019-03-25T04:37:06.655Z,98990.67
2019-03-25T04:42:15.520Z,98998.38
2019-03-25T04:47:23.336Z,98995.56
2019-03-25T04:52:30.952Z,98998.08
2019-03-25T04:57:38.799Z,98984.23
2019-03-25T05:02:46.425Z,98989.30
2019-03-25T05:07:54.204Z,98977.78
2019-03-25T05:13:05.273Z,98969.07
2019-03-25T05:18:13.735Z,98975.65
2019-03-25T05:23:22.955Z,98964.97
2019-03-25T05:28:31.106Z,98944.14
2019-03-25T05:33:40.985Z,98931.95
2019-03-25T05:38:48.861Z,98914.10
2019-03-25T05:44:02.712Z,98901.54
2019-03-25T05:49:11.203Z,98893.62
2019-03-25T05:54:22.377Z,98879.36
2019-03-25T05:59:34.989Z,98875.63
2019-03-25T06:04:48.376Z,98867.08
2019-03-25T06:09:56.475Z,98865.23
2019-03-25T06:15:09.287Z,98854.27
2019-03-25T06:20:19.841Z,98845.88
2019-03-25T06:25:29.322Z,98832.66
2019-03-25T06:30:38.335Z,98836.63
2019-03-25T06:35:47.581Z,98833.53
2019-03-25T06:40:55.475Z,98830.43
2019-03-25T06:46:06.036Z,98839.92
2019-03-25T06:51:14.685Z,98849.18
2019-03-25T06:56:22.622Z,98858.67
2019-03-25T07:01:31.605Z,98867.30
2019-03-25T07:06:46.798Z,98858.89
2019-03-25T07:11:58.149Z,98861.92
2019-03-25T07:17:06.627Z,98854.55
2019-03-25T07:22:14.987Z,98848.12
2019-03-25T07:27:23.898Z,98842.22
2019-03-25T07:32:31.927Z,98835.80
2019-03-25T07:37:40.989Z,98827.45
2019-03-25T07:42:48.938Z,98856.47
2019-03-25T07:47:58.549Z,98842.30
2019-03-25T07:53:14.343Z,98847.67
2019-03-25T07:58:23.715Z,98837.69
2019-03-25T08:03:33.515Z,98832.89
2019-03-25T08:08:45.969Z,98843.03
2019-03-25T08:13:56.358Z,98829.59
2019-03-25T08:19:04.803Z,98812.20
2019-03-25T08:24:13.387Z,98814.00
2019-03-25T08:29:22.074Z,98825.97
2019-03-25T08:34:31.366Z,98849.89
2019-03-25T08:39:39.528Z,98877.47
2019-03-25T08:44:48.609Z,98879.25
2019-03-25T08:49:59.350Z,98874.63
2019-03-25T08:55:08.616Z,98879.91
2019-03-25T09:00:18.365Z,98881.52
2019-03-25T09:05:26.466Z,98888.77
2019-03-25T09:10:34.212Z,98890.43
2019-03-25T09:15:41.870Z,98896.19
2019-03-25T09:20:49.989Z,98889.25
2019-03-25T09:25:58.424Z,98890.70
2019-03-25T09:31:21.300Z,98897.90
2019-03-25T09:36:32.275Z,98903.30
2019-03-25T09:41:44.024Z,98919.30
2019-03-25T09:46:53.371Z,98923.58
2019-03-25T09:52:02.654Z,98924.97
2019-03-25T09:57:16.371Z,98936.17
2019-03-25T10:02:38.124Z,98938.25
2019-03-25T10:07:50.195Z,98933.64
2019-03-25T10:13:01.527Z,98917.48
2019-03-25T10:18:15.568Z,98919.14
2019-03-25T10:23:26.798Z,98923.61
2019-03-25T10:28:34.954Z,98898.17
2019-03-25T10:33:45.803Z,98890.62
2019-03-25T10:38:54.404Z,98885.89
2019-03-25T10:44:02.307Z,98909.30
2019-03-25T10:49:11.793Z,98931.84
2019-03-25T10:54:23.313Z,98918.67
2019-03-25T10:59:34.267Z,98909.66
2019-03-25T11:04:42.431Z,98902.72
2019-03-25T11:09:50.838Z,98892.90
2019-03-25T11:15:00.295Z,98904.27
2019-03-25T11:20:09.140Z,98900.34
2019-03-25T11:25:19.008Z,98892.85
2019-03-25T11:31:01.328Z,98895.59
2019-03-25T11:36:10.947Z,98902.67
2019-03-25T11:41:23.690Z,98918.52
2019-03-25T11:46:32.292Z,98910.66
2019-03-25T11:51:40.425Z,98897.77
2019-03-25T11:56:49.829Z,98896.36
2019-03-25T12:01:59.763Z,98897.63
2019-03-25T12:07:10.409Z,98896.05
2019-03-25T12:12:27.001Z,98886.98
2019-03-25T12:17:38.050Z,98878.34
2019-03-25T12:22:47.185Z,98883.55
2019-03-25T12:27:55.940Z,98879.79
2019-03-25T12:33:11.925Z,98892.33
2019-03-25T12:38:19.884Z,98881.84
2019-03-25T12:43:28.214Z,98876.51
2019-03-25T12:48:37.615Z,98884.40
2019-03-25T12:53:46.530Z,98885.47
2019-03-25T12:58:55.855Z,98881.03
2019-03-25T13:04:08.106Z,98875.42
2019-03-25T13:09:16.335Z,98881.23
2019-03-25T13:14:27.270Z,98877.00
2019-03-25T13:19:40.185Z,98879.32
2019-03-25T13:24:49.667Z,98877.09
2019-03-25T13:36:39.468Z,98882.16
2019-03-25T13:41:48.647Z,98883.52
2019-03-25T13:46:58.061Z,98895.09
2019-03-25T13:52:07.079Z,98887.17
2019-03-25T13:57:15.661Z,98891.77
2019-03-25T14:02:25.127Z,98893.94
2019-03-25T14:07:34.505Z,98903.00
2019-03-25T14:12:43.498Z,98913.52
2019-03-25T14:17:52.702Z,98927.27
2019-03-25T14:23:02.150Z,98956.57
2019-03-25T14:28:11.533Z,98965.66
2019-03-25T14:33:21.236Z,98975.98
2019-03-25T14:38:29.504Z,98976.86
2019-03-25T14:43:44.652Z,98990.25
2019-03-25T14:48:57.228Z,99003.14
2019-03-25T14:54:14.135Z,98999.32
2019-03-25T14:59:22.431Z,99013.97
2019-03-25T15:04:33.656Z,99016.16
2019-03-25T15:09:41.743Z,99024.59
2019-03-25T15:14:53.873Z,99030.81
2019-03-25T15:20:06.021Z,99039.30
2019-03-25T15:25:18.073Z,99050.00
2019-03-25T15:30:35.409Z,99050.00
2019-03-25T15:35:37.864Z,99053.88
2019-03-25T15:40:46.218Z,99061.70
2019-03-25T15:45:54.570Z,99060.80
2019-03-25T15:51:06.091Z,99065.67
2019-03-25T15:56:17.714Z,99074.75
2019-03-25T16:01:26.288Z,99084.64
2019-03-25T16:06:45.826Z,99084.70
2019-03-25T16:11:53.649Z,99089.33
2019-03-25T16:17:02.665Z,99089.92
2019-03-25T16:22:11.523Z,99093.23
2019-03-25T16:27:21.158Z,99097.12
2019-03-25T16:32:29.203Z,99086.52
2019-03-25T16:37:39.211Z,99102.70
2019-03-25T16:42:50.556Z,99111.61
2019-03-25T16:47:58.685Z,99131.05
2019-03-25T16:53:09.291Z,99140.78
2019-03-25T16:58:20.305Z,99152.92
2019-03-25T17:03:31.149Z,99165.99
2019-03-25T17:08:40.789Z,99208.67
2019-03-25T17:13:50.270Z,99208.67
2019-03-25T17:18:59.394Z,99233.13
2019-03-25T17:24:08.573Z,99233.16
2019-03-25T17:29:20.920Z,99250.05
2019-03-25T17:34:29.103Z,99249.59
2019-03-25T17:39:42.597Z,99252.95
2019-03-25T17:44:50.777Z,99256.80
2019-03-25T17:50:01.109Z,99255.66
2019-03-25T17:55:12.544Z,99267.19
2019-03-25T18:00:44.931Z,99284.24
2019-03-25T18:05:54.353Z,99296.28
2019-03-25T18:11:04.189Z,99311.89
2019-03-25T18:16:17.044Z,99331.94
2019-03-25T18:21:26.448Z,99331.94
2019-03-25T18:26:38.797Z,99356.38
2019-03-25T18:31:47.236Z,99363.69
2019-03-25T18:36:55.704Z,99375.70
2019-03-25T18:42:07.491Z,99377.34
2019-03-25T18:47:18.970Z,99392.05
2019-03-25T18:52:30.895Z,99406.21
2019-03-25T18:57:41.342Z,99419.19
2019-03-25T19:02:54.845Z,99429.29
2019-03-25T19:08:06.822Z,99433.58
2019-03-25T19:13:17.111Z,99446.34
2019-03-25T19:18:29.682Z,99445.11
2019-03-25T19:23:40.437Z,99460.73
2019-03-25T19:28:48.797Z,99461.55
2019-03-25T19:33:59.703Z,99471.10
2019-03-25T19:39:10.877Z,99471.10
2019-03-25T19:44:20.445Z,99490.87
2019-03-25T19:49:29.090Z,99491.18
2019-03-25T19:54:39.880Z,99491.18
2019-03-25T19:59:52.649Z,99511.52
2019-03-25T20:05:01.915Z,99525.84
2019-03-25T20:10:24.067Z,99525.84
2019-03-25T20:15:46.089Z,99528.45
2019-03-25T20:20:47.333Z,99553.53
2019-03-25T20:25:59.641Z,99553.53
2019-03-25T20:31:09.017Z,99546.09
2019-03-25T20:36:21.591Z,99559.72
2019-03-25T20:41:32.403Z,99564.36
2019-03-25T20:46:42.565Z,99564.36
2019-03-25T20:51:55.760Z,99574.66
2019-03-25T20:57:03.680Z,99576.86
2019-03-25T21:02:17.350Z,99595.27
2019-03-25T21:07:26.422Z,99601.97
2019-03-25T21:12:35.022Z,99613.78
2019-03-25T21:17:44.510Z,99612.95
2019-03-25T21:22:55.257Z,99619.70
2019-03-25T21:28:04.385Z,99619.70
2019-03-25T21:33:13.317Z,99624.17
2019-03-25T21:38:21.577Z,99626.59
2019-03-25T21:43:29.375Z,99625.85
2019-03-25T21:48:39.887Z,99627.95
2019-03-25T21:53:47.390Z,99638.59
2019-03-25T21:58:55.355Z,99635.56
2019-03-25T22:04:03.924Z,99644.41
2019-03-25T22:09:12.364Z,99643.19
2019-03-25T22:14:20.625Z,99659.39
2019-03-25T22:19:29.287Z,99659.39
2019-03-25T22:24:40.256Z,99665.36
2019-03-25T22:29:50.605Z,99656.66
2019-03-25T22:34:58.738Z,99661.99
2019-03-25T22:40:07.541Z,99676.20
2019-03-25T22:45:17.936Z,99679.47
2019-03-25T22:50:35.857Z,99682.22
2019-03-25T22:55:46.951Z,99685.33
2019-03-25T23:00:55.408Z,99697.02
2019-03-25T23:06:05.798Z,99708.94
2019-03-25T23:11:14.864Z,99718.77
2019-03-25T23:16:22.991Z,99707.84
2019-03-25T23:21:32.621Z,99708.86
2019-03-25T23:26:40.761Z,99722.50
2019-03-25T23:31:49.284Z,99722.50
2019-03-25T23:36:58.126Z,99733.16
2019-03-25T23:42:08.470Z,99734.09
2019-03-25T23:53:39.908Z,99755.89
2019-03-25T23:58:48.069Z,99768.12
